createdAt,value
2019-06-07T00:01:27.061Z,15.30
2019-06-07T00:03:53.740Z,15.33
2019-06-07T00:06:24.536Z,16.80
2019-06-07T00:08:48.002Z,15.53
2019-06-07T00:11:18.001Z,16.73
2019-06-07T00:13:42.284Z,16.60
2019-06-07T00:16:08.736Z,17.17
2019-06-07T00:18:35.063Z,16.83
2019-06-07T00:21:01.173Z,17.40
2019-06-07T00:23:27.295Z,16.97
2019-06-07T00:25:53.547Z,17.87
2019-06-07T00:28:20.131Z,16.03
2019-06-07T00:30:51.958Z,17.80
2019-06-07T00:33:17.364Z,16.53
2019-06-07T00:35:42.931Z,17.50
2019-06-07T00:38:09.405Z,17.30
2019-06-07T00:40:35.814Z,17.00
2019-06-07T00:43:01.925Z,16.17
2019-06-07T00:45:28.156Z,17.37
2019-06-07T00:47:54.394Z,16.20
2019-06-07T00:50:23.789Z,17.17
2019-06-07T00:55:18.125Z,18.07
2019-06-07T00:57:44.803Z,17.80
2019-06-07T01:00:12.319Z,17.43
2019-06-07T01:02:39.188Z,16.50
2019-06-07T01:05:06.008Z,17.60
2019-06-07T01:07:32.209Z,15.33
2019-06-07T01:09:58.446Z,17.30
2019-06-07T01:12:26.993Z,16.30
2019-06-07T01:14:52.653Z,16.10
2019-06-07T01:17:39.241Z,17.70
2019-06-07T01:19:53.210Z,16.07
2019-06-07T01:22:20.697Z,16.63
2019-06-07T01:24:47.381Z,16.23
2019-06-07T01:27:13.589Z,16.77
2019-06-07T01:29:39.693Z,16.33
2019-06-07T01:32:06.177Z,17.27
2019-06-07T01:34:32.286Z,17.83
2019-06-07T01:36:58.397Z,17.10
2019-06-07T01:39:29.283Z,18.00
2019-06-07T01:41:52.647Z,18.57
2019-06-07T01:44:22.725Z,19.03
2019-06-07T01:46:46.946Z,19.37
2019-06-07T01:49:13.166Z,20.63
2019-06-07T01:51:39.277Z,20.37
2019-06-07T01:56:33.549Z,20.00
2019-06-07T01:58:59.673Z,18.97
2019-06-07T02:01:28.543Z,19.10
2019-06-07T02:03:53.818Z,18.27
2019-06-07T02:06:21.025Z,18.27
2019-06-07T02:08:48.152Z,19.23
2019-06-07T02:11:14.429Z,18.93
2019-06-07T02:13:40.549Z,20.57
2019-06-07T02:16:06.801Z,19.33
2019-06-07T02:18:34.973Z,19.30
2019-06-07T02:21:01.021Z,19.73
2019-06-07T02:23:30.937Z,19.40
2019-06-07T02:25:55.188Z,20.80
2019-06-07T02:28:32.090Z,20.03
2019-06-07T02:30:59.410Z,18.80
2019-06-07T02:33:17.811Z,20.93
2019-06-07T02:35:43.965Z,19.50
2019-06-07T02:38:10.173Z,20.30
2019-06-07T02:40:37.422Z,18.67
2019-06-07T02:43:04.131Z,18.40
2019-06-07T02:45:37.603Z,19.60
2019-06-07T02:47:58.380Z,19.67
2019-06-07T02:50:28.549Z,19.90
2019-06-07T02:52:54.482Z,20.23
2019-06-07T02:55:20.699Z,19.80
2019-06-07T02:57:46.900Z,19.07
2019-06-07T03:00:41.395Z,19.00
2019-06-07T03:02:47.910Z,16.87
2019-06-07T03:05:14.366Z,18.07
2019-06-07T03:07:44.985Z,18.17
2019-06-07T03:10:10.413Z,18.90
2019-06-07T03:12:39.382Z,17.87
2019-06-07T03:15:05.902Z,18.70
2019-06-07T03:17:38.204Z,18.40
2019-06-07T03:20:06.950Z,19.23
2019-06-07T03:22:37.988Z,19.87
2019-06-07T03:25:03.574Z,19.00
2019-06-07T03:27:36.274Z,20.17
2019-06-07T03:29:58.114Z,19.53
2019-06-07T03:32:24.337Z,18.40
2019-06-07T03:34:50.485Z,17.90
2019-06-07T03:37:16.739Z,16.50
2019-06-07T03:39:42.841Z,17.63
2019-06-07T03:42:08.949Z,17.47
2019-06-07T03:44:37.868Z,16.40
2019-06-07T03:47:03.119Z,18.57
2019-06-07T03:49:31.538Z,17.17
2019-06-07T03:51:57.426Z,17.03
2019-06-07T03:54:23.635Z,16.37
2019-06-07T03:56:49.864Z,17.00
2019-06-07T03:59:16.272Z,15.77
2019-06-07T04:01:42.395Z,15.87
2019-06-07T04:04:08.724Z,15.43
2019-06-07T04:06:36.862Z,16.30
2019-06-07T04:09:04.969Z,15.97
2019-06-07T04:11:32.596Z,15.20
2019-06-07T04:13:59.077Z,15.90
2019-06-07T04:16:25.287Z,15.60
2019-06-07T04:18:51.520Z,16.37
2019-06-07T04:21:17.663Z,15.70
2019-06-07T04:23:45.806Z,15.50
2019-06-07T04:26:11.878Z,14.63
2019-06-07T04:29:31.164Z,15.50
2019-06-07T04:31:06.249Z,15.73
2019-06-07T04:33:37.070Z,15.43
2019-06-07T04:36:01.551Z,12.37
2019-06-07T04:38:31.969Z,10.17
2019-06-07T04:40:58.871Z,8.73
2019-06-07T04:43:26.137Z,7.73
2019-06-07T04:45:54.140Z,7.63
2019-06-07T04:48:20.828Z,7.53
2019-06-07T04:50:48.300Z,6.73
2019-06-07T04:53:14.602Z,7.13
2019-06-07T04:55:41.909Z,7.07
2019-06-07T04:58:08.163Z,6.80
2019-06-07T05:00:56.392Z,7.37
2019-06-07T05:03:04.288Z,7.50
2019-06-07T05:05:31.861Z,6.83
2019-06-07T05:07:58.149Z,6.67
2019-06-07T05:10:24.461Z,5.63
2019-06-07T05:12:50.809Z,6.93
2019-06-07T05:15:17.466Z,6.77
2019-06-07T05:17:45.207Z,6.80
2019-06-07T05:20:11.675Z,6.30
2019-06-07T05:22:40.772Z,7.90
2019-06-07T05:25:06.188Z,7.00
2019-06-07T05:27:34.326Z,7.27
2019-06-07T05:30:09.488Z,6.33
2019-06-07T05:32:28.365Z,7.10
2019-06-07T05:34:54.590Z,8.20
2019-06-07T05:37:20.713Z,7.60
2019-06-07T05:39:46.926Z,8.33
2019-06-07T05:42:13.288Z,8.27
2019-06-07T05:44:43.530Z,7.63
2019-06-07T05:47:07.502Z,7.23
2019-06-07T05:49:37.876Z,6.60
2019-06-07T05:52:01.908Z,8.47
2019-06-07T05:54:28.024Z,7.40
2019-06-07T05:56:54.162Z,7.93
2019-06-07T05:59:20.272Z,7.17
2019-06-07T06:01:57.424Z,7.73
2019-06-07T06:04:15.122Z,8.10
2019-06-07T06:06:44.744Z,7.87
2019-06-07T06:09:13.770Z,8.03
2019-06-07T06:11:49.424Z,7.80
2019-06-07T06:14:08.322Z,7.50
2019-06-07T06:16:37.195Z,7.63
2019-06-07T06:19:03.608Z,7.70
2019-06-07T06:21:29.844Z,6.93
2019-06-07T06:23:56.029Z,8.20
2019-06-07T06:26:22.190Z,7.80
2019-06-07T06:28:49.725Z,7.10
2019-06-07T06:31:16.083Z,7.47
2019-06-07T06:33:43.400Z,8.03
2019-06-07T06:36:10.508Z,8.00
2019-06-07T06:38:38.588Z,7.83
2019-06-07T06:41:15.400Z,7.83
2019-06-07T06:43:32.892Z,7.83
2019-06-07T06:45:59.104Z,8.17
2019-06-07T06:48:25.406Z,8.90
2019-06-07T06:50:52.704Z,8.70
2019-06-07T06:53:19.157Z,8.13
2019-06-07T06:55:49.273Z,8.10
2019-06-07T06:58:13.517Z,7.60
2019-06-07T07:00:53.486Z,7.93
2019-06-07T07:05:44.059Z,7.83
2019-06-07T07:08:11.469Z,7.80
2019-06-07T07:10:43.077Z,7.57
2019-06-07T07:13:09.681Z,7.00
2019-06-07T07:15:35.956Z,7.83
2019-06-07T07:18:08.549Z,7.17
2019-06-07T07:20:30.743Z,7.07
2019-06-07T07:22:57.236Z,7.30
2019-06-07T07:25:23.537Z,7.87
2019-06-07T07:27:53.423Z,7.10
2019-06-07T07:30:39.695Z,7.47
2019-06-07T07:33:06.849Z,7.87
2019-06-07T07:35:33.534Z,7.03
2019-06-07T07:38:00.215Z,7.17
2019-06-07T07:42:56.581Z,6.57
2019-06-07T07:45:22.586Z,6.83
2019-06-07T07:48:03.199Z,6.73
2019-06-07T07:50:16.946Z,6.67
2019-06-07T07:52:45.810Z,6.63
2019-06-07T07:55:11.445Z,6.30
2019-06-07T07:57:37.856Z,6.63
2019-06-07T08:00:48.152Z,6.20
2019-06-07T08:02:33.810Z,6.83
2019-06-07T08:05:21.813Z,5.87
2019-06-07T08:07:28.238Z,6.30
2019-06-07T08:09:57.723Z,6.20
2019-06-07T08:12:22.588Z,6.60
2019-06-07T08:14:51.116Z,6.83
2019-06-07T08:17:16.820Z,7.10
2019-06-07T08:19:43.111Z,6.40
2019-06-07T08:22:09.264Z,6.57
2019-06-07T08:24:35.485Z,6.07
2019-06-07T08:27:24.698Z,5.97
2019-06-07T08:29:44.494Z,5.80
2019-06-07T08:31:58.722Z,5.50
2019-06-07T08:34:26.602Z,5.90
2019-06-07T08:36:54.939Z,6.13
2019-06-07T08:39:20.839Z,5.87
2019-06-07T08:41:59.355Z,5.30
2019-06-07T08:44:23.383Z,5.83
2019-06-07T08:46:43.097Z,6.00
2019-06-07T08:49:09.233Z,5.60
2019-06-07T08:51:35.366Z,5.73
2019-06-07T08:54:21.215Z,6.27
2019-06-07T08:56:29.565Z,5.80
2019-06-07T08:59:00.435Z,5.47
2019-06-07T09:01:23.718Z,6.00
2019-06-07T09:03:49.828Z,5.70
2019-06-07T09:07:01.341Z,6.93
2019-06-07T09:08:44.006Z,7.50
2019-06-07T09:11:11.466Z,7.27
2019-06-07T09:13:37.905Z,7.63
2019-06-07T09:16:08.268Z,7.23
2019-06-07T09:18:43.221Z,7.10
2019-06-07T09:21:04.023Z,7.13
2019-06-07T09:23:28.513Z,7.30
2019-06-07T09:26:04.876Z,6.77
2019-06-07T09:28:23.638Z,5.70
2019-06-07T09:30:49.852Z,6.13
2019-06-07T09:33:16.015Z,6.60
2019-06-07T09:35:42.253Z,6.27
2019-06-07T09:38:23.725Z,6.73
2019-06-07T09:40:36.564Z,6.60
2019-06-07T09:43:54.267Z,7.07
2019-06-07T09:45:31.909Z,6.73
2019-06-07T09:47:59.337Z,7.13
2019-06-07T09:50:26.281Z,6.93
2019-06-07T09:52:58.653Z,5.87
2019-06-07T09:55:24.765Z,5.30
2019-06-07T09:57:48.565Z,5.83
2019-06-07T10:00:39.207Z,5.30
2019-06-07T10:02:44.029Z,6.08
2019-06-07T10:05:13.974Z,6.20
2019-06-07T10:07:57.258Z,5.90
2019-06-07T10:12:35.406Z,5.90
2019-06-07T10:15:02.912Z,5.93
2019-06-07T10:17:29.326Z,6.30
2019-06-07T10:19:55.552Z,6.63
2019-06-07T10:22:22.281Z,6.53
2019-06-07T10:24:48.485Z,6.23
2019-06-07T10:27:14.664Z,6.20
2019-06-07T10:29:40.862Z,6.10
2019-06-07T10:32:07.189Z,6.30
2019-06-07T10:34:33.411Z,7.23
2019-06-07T10:37:02.944Z,6.67
2019-06-07T10:39:27.540Z,6.17
2019-06-07T10:41:54.188Z,6.37
2019-06-07T10:44:20.397Z,6.93
2019-06-07T10:46:46.496Z,6.40
2019-06-07T10:49:12.761Z,6.47
2019-06-07T10:51:38.973Z,6.80
2019-06-07T10:54:19.216Z,7.20
2019-06-07T10:56:33.172Z,7.33
2019-06-07T10:58:59.401Z,6.37
2019-06-07T11:01:25.516Z,7.07
2019-06-07T11:03:51.664Z,6.67
2019-06-07T11:06:17.794Z,6.40
2019-06-07T11:08:44.012Z,6.63
2019-06-07T11:11:10.244Z,6.43
2019-06-07T11:13:36.572Z,6.87
2019-06-07T11:16:04.611Z,7.03
2019-06-07T11:18:30.973Z,6.60
2019-06-07T11:20:57.191Z,8.20
2019-06-07T11:23:23.595Z,7.30
2019-06-07T11:25:49.853Z,6.27
2019-06-07T11:28:16.181Z,6.40
2019-06-07T11:30:42.308Z,6.77
2019-06-07T11:33:08.556Z,7.53
2019-06-07T11:35:34.758Z,6.13
2019-06-07T11:38:00.886Z,6.10
2019-06-07T11:40:35.086Z,5.17
2019-06-07T11:42:55.063Z,6.57
2019-06-07T11:45:21.381Z,4.20
2019-06-07T11:47:47.623Z,3.00
2019-06-07T11:50:15.538Z,2.50
2019-06-07T11:52:41.980Z,2.33
2019-06-07T11:55:09.187Z,2.30
2019-06-07T11:57:35.528Z,2.00
2019-06-07T12:00:04.139Z,2.10
2019-06-07T12:02:30.364Z,2.30
2019-06-07T12:04:56.488Z,2.20
2019-06-07T12:07:22.614Z,2.60
2019-06-07T12:09:56.390Z,1.90
2019-06-07T12:12:16.872Z,2.03
2019-06-07T12:14:43.085Z,2.23
2019-06-07T12:17:09.316Z,1.93
2019-06-07T12:19:35.525Z,2.30
2019-06-07T12:22:01.720Z,2.07
2019-06-07T12:24:28.095Z,2.20
2019-06-07T12:26:54.220Z,1.97
2019-06-07T12:29:21.126Z,2.50
2019-06-07T12:31:47.511Z,2.30
2019-06-07T12:34:15.420Z,1.97
2019-06-07T12:36:41.822Z,2.70
2019-06-07T12:39:08.074Z,3.13
2019-06-07T12:41:34.429Z,2.50
2019-06-07T12:44:00.626Z,2.43
2019-06-07T12:46:28.645Z,3.03
2019-06-07T12:48:54.792Z,2.63
2019-06-07T12:51:21.285Z,2.37
2019-06-07T12:53:47.559Z,2.60
2019-06-07T12:56:13.663Z,3.10
2019-06-07T12:58:39.884Z,3.07
2019-06-07T13:01:06.126Z,3.20
2019-06-07T13:03:32.455Z,3.53
2019-06-07T13:05:58.667Z,3.73
2019-06-07T13:08:24.903Z,4.17
2019-06-07T13:10:51.022Z,3.50
2019-06-07T13:13:18.253Z,3.37
2019-06-07T13:15:44.865Z,4.00
2019-06-07T13:18:14.879Z,3.63
2019-06-07T13:20:38.976Z,4.20
2019-06-07T13:23:05.140Z,3.70
2019-06-07T13:25:45.493Z,4.07
2019-06-07T13:27:59.466Z,3.83
2019-06-07T13:30:25.904Z,3.50
2019-06-07T13:32:52.024Z,3.87
2019-06-07T13:35:20.031Z,4.00
2019-06-07T13:37:46.305Z,3.70
2019-06-07T13:40:12.924Z,4.07
2019-06-07T13:42:39.137Z,3.20
2019-06-07T13:45:07.303Z,3.27
2019-06-07T13:47:33.488Z,3.40
2019-06-07T13:49:59.610Z,3.63
2019-06-07T13:52:25.859Z,3.90
2019-06-07T13:54:51.970Z,3.87
2019-06-07T13:57:18.318Z,3.20
2019-06-07T13:59:44.578Z,3.47
2019-06-07T14:02:10.883Z,3.67
2019-06-07T14:04:36.992Z,3.43
2019-06-07T14:07:03.372Z,3.10
2019-06-07T14:09:29.819Z,3.70
2019-06-07T14:11:56.153Z,2.93
2019-06-07T14:14:24.570Z,2.60
2019-06-07T14:16:50.578Z,2.57
2019-06-07T14:19:16.680Z,3.03
2019-06-07T14:21:42.844Z,2.90
2019-06-07T14:24:08.948Z,3.10
2019-06-07T14:26:35.141Z,2.60
2019-06-07T14:29:01.391Z,2.20
2019-06-07T14:31:28.102Z,2.37
2019-06-07T14:33:54.315Z,2.40
2019-06-07T14:36:20.473Z,1.97
2019-06-07T14:38:46.676Z,1.90
2019-06-07T14:41:12.792Z,2.10
2019-06-07T14:43:39.053Z,2.00
2019-06-07T14:46:05.178Z,1.77
2019-06-07T14:48:32.645Z,1.60
2019-06-07T14:50:58.973Z,1.70
2019-06-07T14:53:26.476Z,1.70
2019-06-07T14:55:52.891Z,1.47
2019-06-07T14:58:19.144Z,1.13
2019-06-07T15:00:45.254Z,1.37
2019-06-07T15:03:11.480Z,1.40
2019-06-07T15:05:40.145Z,1.80
2019-06-07T15:08:05.846Z,1.50
2019-06-07T15:10:33.607Z,1.37
2019-06-07T15:13:00.217Z,1.37
2019-06-07T15:15:26.643Z,1.40
2019-06-07T15:17:52.876Z,1.30
2019-06-07T15:20:19.275Z,1.27
2019-06-07T15:22:45.372Z,1.43
2019-06-07T15:25:11.695Z,1.10
2019-06-07T15:27:38.011Z,1.20
2019-06-07T15:30:10.375Z,1.20
2019-06-07T15:32:38.747Z,1.43
2019-06-07T15:35:05.235Z,1.30
2019-06-07T15:37:32.494Z,1.30
2019-06-07T15:39:58.751Z,1.43
2019-06-07T15:42:40.138Z,1.30
2019-06-07T15:44:55.861Z,1.30
2019-06-07T15:47:20.912Z,1.20
2019-06-07T15:49:47.179Z,1.03
2019-06-07T15:52:13.285Z,1.30
2019-06-07T15:54:40.607Z,1.10
2019-06-07T15:57:07.141Z,1.20
2019-06-07T15:59:33.363Z,1.30
2019-06-07T16:02:01.502Z,1.20
2019-06-07T16:04:27.787Z,1.00
2019-06-07T16:06:54.033Z,1.03
2019-06-07T16:09:21.575Z,1.10
2019-06-07T16:11:47.758Z,1.10
2019-06-07T16:14:13.985Z,1.10
2019-06-07T16:16:41.390Z,1.07
2019-06-07T16:19:07.916Z,1.43
2019-06-07T16:21:35.196Z,1.00
2019-06-07T16:24:01.447Z,0.83
2019-06-07T16:26:27.728Z,1.00
2019-06-07T16:28:57.185Z,1.10
2019-06-07T16:31:22.001Z,0.80
2019-06-07T16:33:48.162Z,0.70
2019-06-07T16:36:14.294Z,0.90
2019-06-07T16:38:40.521Z,0.80
2019-06-07T16:41:07.019Z,0.67
2019-06-07T16:43:33.239Z,0.60
2019-06-07T16:48:36.757Z,0.80
2019-06-07T16:51:03.290Z,0.80
2019-06-07T16:53:29.514Z,1.00
2019-06-07T16:55:55.772Z,1.80
2019-06-07T16:58:21.985Z,0.80
2019-06-07T17:00:48.624Z,0.90
2019-06-07T17:03:15.043Z,1.30
2019-06-07T17:05:44.883Z,0.60
2019-06-07T17:08:09.306Z,0.70
2019-06-07T17:10:35.539Z,0.80
2019-06-07T17:13:02.779Z,0.73
2019-06-07T17:15:28.976Z,0.80
2019-06-07T17:17:55.364Z,0.77
2019-06-07T17:20:21.776Z,0.87
2019-06-07T17:22:47.984Z,0.90
2019-06-07T17:25:15.637Z,0.70
2019-06-07T17:27:42.163Z,0.80
2019-06-07T17:30:10.483Z,0.80
2019-06-07T17:32:48.452Z,0.70
2019-06-07T17:35:05.287Z,0.93
2019-06-07T17:37:31.405Z,1.00
2019-06-07T17:39:57.785Z,0.80
2019-06-07T17:42:23.914Z,1.17
2019-06-07T17:44:51.330Z,0.83
2019-06-07T17:47:17.702Z,0.90
2019-06-07T17:49:44.293Z,0.80
2019-06-07T17:52:10.433Z,0.90
2019-06-07T17:54:36.577Z,0.93
2019-06-07T17:57:02.801Z,0.60
2019-06-07T17:59:28.992Z,1.27
2019-06-07T18:02:13.286Z,0.80
2019-06-07T18:04:23.259Z,0.90
2019-06-07T18:06:51.470Z,0.90
2019-06-07T18:09:18.048Z,1.43
2019-06-07T18:11:44.262Z,1.30
2019-06-07T18:14:11.235Z,1.00
2019-06-07T18:16:37.627Z,1.40
2019-06-07T18:19:04.020Z,1.30
2019-06-07T18:21:30.139Z,1.37
2019-06-07T18:23:56.383Z,1.40
2019-06-07T18:26:22.592Z,1.23
2019-06-07T18:28:48.703Z,1.03
2019-06-07T18:31:15.044Z,1.33
2019-06-07T18:33:41.168Z,1.00
2019-06-07T18:36:07.372Z,1.00
2019-06-07T18:38:33.531Z,1.10
2019-06-07T18:40:59.743Z,1.07
2019-06-07T18:43:25.881Z,0.70
2019-06-07T18:45:53.311Z,0.87
2019-06-07T18:48:19.870Z,1.20
2019-06-07T18:50:46.507Z,1.00
2019-06-07T18:53:12.868Z,0.87
2019-06-07T18:55:39.574Z,0.97
2019-06-07T18:58:05.821Z,0.70
2019-06-07T19:00:32.298Z,1.00
2019-06-07T19:02:58.518Z,1.10
2019-06-07T19:05:24.906Z,0.90
2019-06-07T19:07:52.431Z,0.97
2019-06-07T19:10:20.080Z,1.40
2019-06-07T19:12:46.265Z,1.20
2019-06-07T19:15:14.260Z,1.50
2019-06-07T19:17:40.566Z,1.30
2019-06-07T19:20:07.185Z,1.27
2019-06-07T19:22:33.331Z,1.77
2019-06-07T19:25:00.472Z,1.97
2019-06-07T19:27:26.851Z,1.40
2019-06-07T19:29:53.000Z,1.17
2019-06-07T19:32:19.324Z,1.10
2019-06-07T19:34:45.441Z,1.33
2019-06-07T19:37:11.581Z,1.33
2019-06-07T19:39:37.675Z,1.33
2019-06-07T19:42:04.099Z,1.60
2019-06-07T19:44:30.339Z,1.13
2019-06-07T19:46:56.581Z,1.27
2019-06-07T19:49:22.805Z,1.73
2019-06-07T19:51:48.965Z,1.90
2019-06-07T19:54:15.161Z,1.17
2019-06-07T19:56:41.256Z,1.10
2019-06-07T19:59:07.411Z,1.33
2019-06-07T20:01:33.526Z,1.20
2019-06-07T20:04:00.008Z,1.30
2019-06-07T20:06:26.270Z,1.67
2019-06-07T20:08:52.386Z,1.50
2019-06-07T20:11:18.503Z,1.43
2019-06-07T20:13:44.999Z,1.70
2019-06-07T20:16:11.108Z,2.00
2019-06-07T20:18:37.312Z,1.30
2019-06-07T20:21:04.818Z,1.73
2019-06-07T20:23:31.117Z,1.30
2019-06-07T20:25:57.248Z,1.67
2019-06-07T20:28:23.480Z,1.50
2019-06-07T20:30:52.198Z,1.47
2019-06-07T20:33:17.745Z,1.73
2019-06-07T20:35:43.905Z,1.73
2019-06-07T20:38:10.015Z,2.00
2019-06-07T20:40:36.109Z,1.83
2019-06-07T20:43:03.514Z,1.73
2019-06-07T20:45:33.494Z,1.97
2019-06-07T20:47:58.227Z,1.77
2019-06-07T20:50:24.548Z,1.50
2019-06-07T20:52:50.662Z,1.77
2019-06-07T20:55:17.263Z,1.27
2019-06-07T20:57:43.450Z,1.23
2019-06-07T21:00:17.249Z,1.10
2019-06-07T21:02:37.840Z,1.00
2019-06-07T21:05:05.244Z,1.00
2019-06-07T21:07:31.422Z,1.40
2019-06-07T21:09:57.575Z,1.00
2019-06-07T21:12:23.977Z,1.00
2019-06-07T21:14:50.169Z,0.93
2019-06-07T21:17:16.268Z,0.83
2019-06-07T21:19:42.528Z,1.00
2019-06-07T21:22:08.881Z,0.90
2019-06-07T21:24:35.059Z,0.60
2019-06-07T21:27:01.678Z,0.63
2019-06-07T21:29:28.265Z,0.90
2019-06-07T21:31:54.423Z,0.90
2019-06-07T21:34:20.993Z,1.07
2019-06-07T21:36:47.109Z,1.00
2019-06-07T21:39:13.358Z,0.63
2019-06-07T21:41:39.578Z,0.80
2019-06-07T21:44:06.199Z,0.70
2019-06-07T21:46:32.506Z,0.90
2019-06-07T21:48:58.803Z,1.03
2019-06-07T21:51:24.971Z,1.00
2019-06-07T21:53:51.073Z,0.80
2019-06-07T21:56:17.283Z,0.90
2019-06-07T21:58:43.397Z,1.00
2019-06-07T22:01:14.191Z,0.80
2019-06-07T22:03:40.765Z,1.00
2019-06-07T22:06:07.636Z,0.67
2019-06-07T22:08:33.893Z,0.87
2019-06-07T22:11:00.170Z,0.90
2019-06-07T22:13:26.364Z,0.67
2019-06-07T22:15:52.486Z,0.90
2019-06-07T22:18:18.645Z,1.07
2019-06-07T22:20:44.751Z,0.80
2019-06-07T22:23:10.856Z,1.00
2019-06-07T22:25:37.137Z,1.20
2019-06-07T22:28:03.423Z,1.00
2019-06-07T22:30:29.531Z,1.37
2019-06-07T22:32:55.669Z,1.57
2019-06-07T22:35:21.933Z,1.60
2019-06-07T22:37:48.133Z,0.90
2019-06-07T22:40:14.757Z,1.13
2019-06-07T22:42:40.925Z,1.33
2019-06-07T22:45:07.927Z,2.17
2019-06-07T22:47:34.485Z,0.97
2019-06-07T22:50:00.600Z,1.80
2019-06-07T22:52:26.805Z,1.47
2019-06-07T22:54:53.039Z,1.77
2019-06-07T22:57:21.132Z,1.70
2019-06-07T22:59:47.231Z,1.73
2019-06-07T23:02:14.570Z,1.50
2019-06-07T23:04:42.781Z,1.20
2019-06-07T23:07:08.970Z,1.33
2019-06-07T23:09:35.163Z,1.63
2019-06-07T23:12:01.277Z,1.97
2019-06-07T23:14:27.557Z,1.23
2019-06-07T23:16:55.827Z,1.50
2019-06-07T23:19:21.940Z,1.33
2019-06-07T23:21:48.137Z,1.40
2019-06-07T23:24:14.279Z,1.30
2019-06-07T23:26:40.413Z,1.43
2019-06-07T23:29:06.629Z,1.53
2019-06-07T23:31:33.048Z,1.70
2019-06-07T23:34:01.450Z,1.60
2019-06-07T23:36:27.822Z,1.20
2019-06-07T23:38:56.664Z,1.30
2019-06-07T23:41:22.764Z,1.37
2019-06-07T23:43:48.973Z,1.10
2019-06-07T23:46:15.348Z,1.60
2019-06-07T23:48:42.592Z,1.20
2019-06-07T23:51:08.748Z,1.23
2019-06-07T23:53:34.892Z,1.07
2019-06-07T23:56:00.996Z,1.10
2019-06-07T23:58:29.033Z,1.40
